Search for airport 
image banner adimage banner adimage banner ad
image banner ad

4D8 - Fuller

Located in Milford, United States

ICAO - 4D8, IATA -

Data provided by Airmate  

General information

Coordinates: N43°19'59" W95°9'33"
Elevation is 1439 feet MSL.
Magnetic variation is 05° East
View others Airports in Iowa

Operational data

Special qualification required
Current time UTC:
Current local time:
Weather at : KSPW - Spencer Muni ( 19 km )
METAR: KSPW 181753Z AUTO VRB05KT 10SM CLR 31/09 A2989 RMK AO2 SLP111 T03110089 10317 20172 53004 TSNO
View NOTAMs / SUP AIP / TFR affecting this airport [VIEW]
Communications frequencies: [VIEW]

Runways:

RWY identifierQFULength (ft)Width (ft)SurfaceLDA (ft)
0990°287350ASPH
27270°287350ASPH
18180°1990100GRASS
361990100GRASS

Airport contact information

Address: Milford United States

Satellite view of 4D8